Terminal Aerodrome Forecast
Issued by NWS Wilmington, OH

Current Version | Previous Version | Graphics & Text | Print | Product List | Glossary On
Versions: 1 2 3 4 5 6 7 8 9 10 11 12 13 14 15 16 17 18 19 20 21 22 23
000
FTUS41 KILN 121739
TAFDAY
TAF
KDAY 121739Z 1218/1318 31016G23KT P6SM VCSH OVC030
      TEMPO 1218/1222 1SM -SHSN OVC020
     FM122200 30016G24KT P6SM -SHSN OVC035
     FM130000 30013G20KT P6SM SCT030 BKN200
     FM131000 25006KT P6SM SCT120
     FM131700 19011KT P6SM OVC050=

USA.gov is the U.S. government's official web portal to all federal, state and local government web resources and services.